Xun Long 5 — BYGW — position and weather

sailwx.info

Track history (hours):
 
Tides and Currents Weather Stations Pressure Air Temp Water Temp Dewpoint Dewpoint Depression Visibility Wind Speed Wind Dir Waves Ship Positions

Xun Long 5

Last reported at 2016-Aug-21 10:20 UTC. Time now 2016-Aug-25 06:14 UTC.
Position N 22°11' E 113°38'.

Length 34 m; draft 1.4 m.

Type: High speed craft. MMSI: 413471870.

Date/timePositionNaut miles runAvg speedWind from/ knotsBaromVisibWave heightAir tempDewpointWater temp
2016-Aug-21 10:20N 22°11' E 113°38'4 0.6
2016-Aug-21 04:27N 22°12' E 113°34'4 1.2
2016-Aug-21 01:23N 22°10' E 113°37'2312.7
2016-Aug-20 23:33N 22°27' E 113°54'2 1.8
2016-Aug-20 22:29N 22°29' E 113°55'0 0.0
2016-Aug-20 21:23N 22°29' E 113°55'0 0.0
2016-Aug-20 20:23N 22°29' E 113°55'0 0.0
2016-Aug-20 19:29N 22°29' E 113°55'0 0.0
2016-Aug-20 18:29N 22°29' E 113°55'0 0.0
2016-Aug-20 17:23N 22°29' E 113°55'0 0.0
2016-Aug-20 16:29N 22°29' E 113°55'0 0.0
2016-Aug-20 15:23N 22°29' E 113°55'0 0.0
2016-Aug-20 14:23N 22°29' E 113°55'0 0.0
2016-Aug-20 13:29N 22°29' E 113°55'11 3.7
2016-Aug-20 10:32N 22°20' E 113°48'1111.3
2016-Aug-20 09:33N 22°29' E 113°55'19 9.5
2016-Aug-20 07:33N 22°14' E 113°42'1919.1
2016-Aug-20 06:33N 22°29' E 113°55'1312.8
2016-Aug-20 05:33N 22°20' E 114°05'1110.0
2016-Aug-20 04:28N 22°24' E 113°54'5 4.9
2016-Aug-20 03:29N 22°29' E 113°55'0 0.0
2016-Aug-20 02:29N 22°29' E 113°55'0 0.0
2016-Aug-20 01:29N 22°29' E 113°55'0 0.0
2016-Aug-20 00:29N 22°29' E 113°55'0 0.0
2016-Aug-19 23:29N 22°29' E 113°55'0 0.0
2016-Aug-19 22:29N 22°29' E 113°55'0 0.0
2016-Aug-19 21:29N 22°29' E 113°55'0 0.0
2016-Aug-19 20:29N 22°29' E 113°55'0 0.0
2016-Aug-19 19:17N 22°29' E 113°55'0 0.0
2016-Aug-19 18:29N 22°29' E 113°55'0 0.0
2016-Aug-19 17:29N 22°29' E 113°55'0 0.0
2016-Aug-19 16:23N 22°29' E 113°55'0 0.0
2016-Aug-19 15:23N 22°29' E 113°55'0 0.0
2016-Aug-19 14:29N 22°29' E 113°55'0 0.0
2016-Aug-19 13:29N 22°29' E 113°55'0 0.0
2016-Aug-19 12:11N 22°29' E 113°55'0 0.0
2016-Aug-19 11:29N 22°29' E 113°55'0 0.0
2016-Aug-19 10:29N 22°29' E 113°55'0 0.0
2016-Aug-19 09:23N 22°29' E 113°55'0 0.0
2016-Aug-19 08:11N 22°29' E 113°55'0 0.0
2016-Aug-19 07:23N 22°29' E 113°55'0 0.0
2016-Aug-19 06:29N 22°29' E 113°55'0 0.0
2016-Aug-19 05:29N 22°29' E 113°55'0 0.0
2016-Aug-19 04:29N 22°29' E 113°55'0 0.0
2016-Aug-19 03:29N 22°29' E 113°55'0 0.0
2016-Aug-19 02:29N 22°29' E 113°55'0 0.0
2016-Aug-19 01:29N 22°29' E 113°55'0 0.0
2016-Aug-19 00:29N 22°29' E 113°55'0 0.0
2016-Aug-18 23:23N 22°29' E 113°55'0 0.0
2016-Aug-18 22:29N 22°29' E 113°55'0 0.0
2016-Aug-18 21:29N 22°29' E 113°55'0 0.0
2016-Aug-18 20:23N 22°29' E 113°55'0 0.0
2016-Aug-18 19:29N 22°29' E 113°55'0 0.0
2016-Aug-18 18:23N 22°29' E 113°55'0 0.0
2016-Aug-18 17:23N 22°29' E 113°55'0 0.0
2016-Aug-18 16:29N 22°29' E 113°55'0 0.0
2016-Aug-18 15:23N 22°29' E 113°55'0 0.0
2016-Aug-18 14:29N 22°29' E 113°55'0 0.0
2016-Aug-18 13:23N 22°29' E 113°55'0 0.0
2016-Aug-18 12:23N 22°29' E 113°55'0 0.0
2016-Aug-18 11:29N 22°29' E 113°55'0 0.0
2016-Aug-18 10:05N 22°29' E 113°55'0 0.4
2016-Aug-18 09:33N 22°29' E 113°55'2121.1
2016-Aug-18 08:33N 22°13' E 113°40'4 4.1
2016-Aug-18 07:34N 22°11' E 113°36'2524.1
2016-Aug-18 06:31N 22°29' E 113°55'0 0.1
2016-Aug-18 05:33N 22°29' E 113°55'0 0.1
2016-Aug-18 04:34N 22°29' E 113°55'1817.7
2016-Aug-18 03:34N 22°17' E 114°09'1515.2
2016-Aug-18 02:33N 22°24' E 113°54'5 4.4
2016-Aug-18 01:28N 22°29' E 113°55'0 0.0
2016-Aug-18 00:28N 22°29' E 113°55'0 0.0
2016-Aug-17 23:28N 22°29' E 113°55'0 0.0
2016-Aug-17 22:28N 22°29' E 113°55'0 0.0
2016-Aug-17 21:28N 22°29' E 113°55'0 0.0
2016-Aug-17 20:28N 22°29' E 113°55'0 0.0
2016-Aug-17 19:16N 22°29' E 113°55'0 0.0
2016-Aug-17 18:22N 22°29' E 113°55'0 0.0
2016-Aug-17 17:28N 22°29' E 113°55'0 0.0
2016-Aug-17 16:28N 22°29' E 113°55'0 0.0
2016-Aug-17 15:28N 22°29' E 113°55'0 0.0
2016-Aug-17 14:28N 22°29' E 113°55'0 0.0
2016-Aug-17 13:22N 22°29' E 113°55'0 0.0
2016-Aug-17 12:28N 22°29' E 113°55'0 0.0
2016-Aug-17 11:28N 22°29' E 113°55'0 0.0
2016-Aug-17 10:28N 22°29' E 113°55'0 0.0
2016-Aug-17 09:31N 22°29' E 113°55'0 0.0
2016-Aug-17 08:28N 22°29' E 113°55'0 0.0
2016-Aug-17 07:22N 22°29' E 113°55'0 0.0
2016-Aug-17 06:25N 22°29' E 113°55'0 0.0
2016-Aug-17 05:31N 22°29' E 113°55'0 0.0
2016-Aug-17 04:28N 22°29' E 113°55'0 0.0
2016-Aug-17 03:31N 22°29' E 113°55'0 0.0
2016-Aug-17 02:31N 22°29' E 113°55'0 0.0
2016-Aug-17 01:31N 22°29' E 113°55'0 0.0
2016-Aug-17 00:31N 22°29' E 113°55'0 0.0
2016-Aug-16 23:31N 22°29' E 113°55'0 0.0
2016-Aug-16 22:31N 22°29' E 113°55'0 0.0
2016-Aug-16 21:28N 22°29' E 113°55'0 0.0
2016-Aug-16 20:31N 22°29' E 113°55'0 0.0
2016-Aug-16 19:28N 22°29' E 113°55'0 0.0
2016-Aug-16 18:28N 22°29' E 113°55'0 0.0
2016-Aug-16 17:28N 22°29' E 113°55'0 0.0
2016-Aug-16 16:28N 22°29' E 113°55'0 0.0
2016-Aug-16 15:31N 22°29' E 113°55'0 0.0
2016-Aug-16 14:31N 22°29' E 113°55'0 0.0
2016-Aug-16 13:28N 22°29' E 113°55'0 0.1
2016-Aug-16 12:34N 22°29' E 113°55'19 6.4
2016-Aug-16 09:33N 22°16' E 113°39'6 2.1
2016-Aug-16 06:32N 22°10' E 113°37'5 2.5
2016-Aug-16 04:24N 22°15' E 113°38'2 2.1
2016-Aug-16 03:33N 22°13' E 113°38'1 0.3
2016-Aug-16 01:10N 22°14' E 113°38'5 0.4
2016-Aug-15 13:21N 22°12' E 113°34'1619.9
2016-Aug-15 12:33N 22°25' E 113°43'5 1.5
2016-Aug-15 09:10N 22°29' E 113°46'1 0.1
2016-Aug-14 12:33N 22°30' E 113°46'6 1.9
2016-Aug-14 09:17N 22°25' E 113°43'15 5.4
2016-Aug-14 06:32N 22°11' E 113°38'4 0.4
2016-Aug-13 19:30N 22°12' E 113°34'4 0.2
2016-Aug-13 03:32N 22°12' E 113°38'20 1.2
2016-Aug-12 11:32N 22°27' E 113°51'3 3.0
2016-Aug-12 10:29N 22°29' E 113°54'0 0.3
2016-Aug-12 09:33N 22°29' E 113°55'2110.3
2016-Aug-12 07:33N 22°13' E 113°40'2120.7
2016-Aug-12 06:33N 22°29' E 113°55'0 0.1
2016-Aug-12 05:22N 22°29' E 113°54'0 0.1
2016-Aug-12 04:32N 22°29' E 113°55'1817.9
2016-Aug-12 03:33N 22°17' E 114°09'1414.3
2016-Aug-12 02:33N 22°23' E 113°55'10 7.7
2016-Aug-12 01:18N 22°21' E 114°05'2 2.0
2016-Aug-12 00:33N 22°19' E 114°05'27 1.9
2016-Aug-11 10:31N 22°11' E 113°38'  
Track history (hours):
 
Tides and Currents Weather Stations Pressure Air Temp Water Temp Dewpoint Dewpoint Depression Visibility Wind Speed Wind Dir Waves Ship Positions

Xun Long 5

Last reported at 2016-Aug-21 10:20 UTC. Time now 2016-Aug-25 06:14 UTC.
Position N 22°11' E 113°38'.

Length 34 m; draft 1.4 m.

Type: High speed craft. MMSI: 413471870.

Date/timePositionNaut miles runAvg speedWind from/ knotsBaromVisibWave heightAir tempDewpointWater temp
2016-Aug-21 10:20N 22°11' E 113°38'4 0.6
2016-Aug-21 04:27N 22°12' E 113°34'4 1.2
2016-Aug-21 01:23N 22°10' E 113°37'2312.7
2016-Aug-20 23:33N 22°27' E 113°54'2 1.8
2016-Aug-20 22:29N 22°29' E 113°55'0 0.0
2016-Aug-20 21:23N 22°29' E 113°55'0 0.0
2016-Aug-20 20:23N 22°29' E 113°55'0 0.0
2016-Aug-20 19:29N 22°29' E 113°55'0 0.0
2016-Aug-20 18:29N 22°29' E 113°55'0 0.0
2016-Aug-20 17:23N 22°29' E 113°55'0 0.0
2016-Aug-20 16:29N 22°29' E 113°55'0 0.0
2016-Aug-20 15:23N 22°29' E 113°55'0 0.0
2016-Aug-20 14:23N 22°29' E 113°55'0 0.0
2016-Aug-20 13:29N 22°29' E 113°55'11 3.7
2016-Aug-20 10:32N 22°20' E 113°48'1111.3
2016-Aug-20 09:33N 22°29' E 113°55'19 9.5
2016-Aug-20 07:33N 22°14' E 113°42'1919.1
2016-Aug-20 06:33N 22°29' E 113°55'1312.8
2016-Aug-20 05:33N 22°20' E 114°05'1110.0
2016-Aug-20 04:28N 22°24' E 113°54'5 4.9
2016-Aug-20 03:29N 22°29' E 113°55'0 0.0
2016-Aug-20 02:29N 22°29' E 113°55'0 0.0
2016-Aug-20 01:29N 22°29' E 113°55'0 0.0
2016-Aug-20 00:29N 22°29' E 113°55'0 0.0
2016-Aug-19 23:29N 22°29' E 113°55'0 0.0
2016-Aug-19 22:29N 22°29' E 113°55'0 0.0
2016-Aug-19 21:29N 22°29' E 113°55'0 0.0
2016-Aug-19 20:29N 22°29' E 113°55'0 0.0
2016-Aug-19 19:17N 22°29' E 113°55'0 0.0
2016-Aug-19 18:29N 22°29' E 113°55'0 0.0
2016-Aug-19 17:29N 22°29' E 113°55'0 0.0
2016-Aug-19 16:23N 22°29' E 113°55'0 0.0
2016-Aug-19 15:23N 22°29' E 113°55'0 0.0
2016-Aug-19 14:29N 22°29' E 113°55'0 0.0
2016-Aug-19 13:29N 22°29' E 113°55'0 0.0
2016-Aug-19 12:11N 22°29' E 113°55'0 0.0
2016-Aug-19 11:29N 22°29' E 113°55'0 0.0
2016-Aug-19 10:29N 22°29' E 113°55'0 0.0
2016-Aug-19 09:23N 22°29' E 113°55'0 0.0
2016-Aug-19 08:11N 22°29' E 113°55'0 0.0
2016-Aug-19 07:23N 22°29' E 113°55'0 0.0
2016-Aug-19 06:29N 22°29' E 113°55'0 0.0
2016-Aug-19 05:29N 22°29' E 113°55'0 0.0
2016-Aug-19 04:29N 22°29' E 113°55'0 0.0
2016-Aug-19 03:29N 22°29' E 113°55'0 0.0
2016-Aug-19 02:29N 22°29' E 113°55'0 0.0
2016-Aug-19 01:29N 22°29' E 113°55'0 0.0
2016-Aug-19 00:29N 22°29' E 113°55'0 0.0
2016-Aug-18 23:23N 22°29' E 113°55'0 0.0
2016-Aug-18 22:29N 22°29' E 113°55'0 0.0
2016-Aug-18 21:29N 22°29' E 113°55'0 0.0
2016-Aug-18 20:23N 22°29' E 113°55'0 0.0
2016-Aug-18 19:29N 22°29' E 113°55'0 0.0
2016-Aug-18 18:23N 22°29' E 113°55'0 0.0
2016-Aug-18 17:23N 22°29' E 113°55'0 0.0
2016-Aug-18 16:29N 22°29' E 113°55'0 0.0
2016-Aug-18 15:23N 22°29' E 113°55'0 0.0
2016-Aug-18 14:29N 22°29' E 113°55'0 0.0
2016-Aug-18 13:23N 22°29' E 113°55'0 0.0
2016-Aug-18 12:23N 22°29' E 113°55'0 0.0
2016-Aug-18 11:29N 22°29' E 113°55'0 0.0
2016-Aug-18 10:05N 22°29' E 113°55'0 0.4
2016-Aug-18 09:33N 22°29' E 113°55'2121.1
2016-Aug-18 08:33N 22°13' E 113°40'4 4.1
2016-Aug-18 07:34N 22°11' E 113°36'2524.1
2016-Aug-18 06:31N 22°29' E 113°55'0 0.1
2016-Aug-18 05:33N 22°29' E 113°55'0 0.1
2016-Aug-18 04:34N 22°29' E 113°55'1817.7
2016-Aug-18 03:34N 22°17' E 114°09'1515.2
2016-Aug-18 02:33N 22°24' E 113°54'5 4.4
2016-Aug-18 01:28N 22°29' E 113°55'0 0.0
2016-Aug-18 00:28N 22°29' E 113°55'0 0.0
2016-Aug-17 23:28N 22°29' E 113°55'0 0.0
2016-Aug-17 22:28N 22°29' E 113°55'0 0.0
2016-Aug-17 21:28N 22°29' E 113°55'0 0.0
2016-Aug-17 20:28N 22°29' E 113°55'0 0.0
2016-Aug-17 19:16N 22°29' E 113°55'0 0.0
2016-Aug-17 18:22N 22°29' E 113°55'0 0.0
2016-Aug-17 17:28N 22°29' E 113°55'0 0.0
2016-Aug-17 16:28N 22°29' E 113°55'0 0.0
2016-Aug-17 15:28N 22°29' E 113°55'0 0.0
2016-Aug-17 14:28N 22°29' E 113°55'0 0.0
2016-Aug-17 13:22N 22°29' E 113°55'0 0.0
2016-Aug-17 12:28N 22°29' E 113°55'0 0.0
2016-Aug-17 11:28N 22°29' E 113°55'0 0.0
2016-Aug-17 10:28N 22°29' E 113°55'0 0.0
2016-Aug-17 09:31N 22°29' E 113°55'0 0.0
2016-Aug-17 08:28N 22°29' E 113°55'0 0.0
2016-Aug-17 07:22N 22°29' E 113°55'0 0.0
2016-Aug-17 06:25N 22°29' E 113°55'0 0.0
2016-Aug-17 05:31N 22°29' E 113°55'0 0.0
2016-Aug-17 04:28N 22°29' E 113°55'0 0.0
2016-Aug-17 03:31N 22°29' E 113°55'0 0.0
2016-Aug-17 02:31N 22°29' E 113°55'0 0.0
2016-Aug-17 01:31N 22°29' E 113°55'0 0.0
2016-Aug-17 00:31N 22°29' E 113°55'0 0.0
2016-Aug-16 23:31N 22°29' E 113°55'0 0.0
2016-Aug-16 22:31N 22°29' E 113°55'0 0.0
2016-Aug-16 21:28N 22°29' E 113°55'0 0.0
2016-Aug-16 20:31N 22°29' E 113°55'0 0.0
2016-Aug-16 19:28N 22°29' E 113°55'0 0.0
2016-Aug-16 18:28N 22°29' E 113°55'0 0.0
2016-Aug-16 17:28N 22°29' E 113°55'0 0.0
2016-Aug-16 16:28N 22°29' E 113°55'0 0.0
2016-Aug-16 15:31N 22°29' E 113°55'0 0.0
2016-Aug-16 14:31N 22°29' E 113°55'0 0.0
2016-Aug-16 13:28N 22°29' E 113°55'0 0.1
2016-Aug-16 12:34N 22°29' E 113°55'19 6.4
2016-Aug-16 09:33N 22°16' E 113°39'6 2.1
2016-Aug-16 06:32N 22°10' E 113°37'5 2.5
2016-Aug-16 04:24N 22°15' E 113°38'2 2.1
2016-Aug-16 03:33N 22°13' E 113°38'1 0.3
2016-Aug-16 01:10N 22°14' E 113°38'5 0.4
2016-Aug-15 13:21N 22°12' E 113°34'1619.9
2016-Aug-15 12:33N 22°25' E 113°43'5 1.5
2016-Aug-15 09:10N 22°29' E 113°46'1 0.1
2016-Aug-14 12:33N 22°30' E 113°46'6 1.9
2016-Aug-14 09:17N 22°25' E 113°43'15 5.4
2016-Aug-14 06:32N 22°11' E 113°38'4 0.4
2016-Aug-13 19:30N 22°12' E 113°34'4 0.2
2016-Aug-13 03:32N 22°12' E 113°38'20 1.2
2016-Aug-12 11:32N 22°27' E 113°51'3 3.0
2016-Aug-12 10:29N 22°29' E 113°54'0 0.3
2016-Aug-12 09:33N 22°29' E 113°55'2110.3
2016-Aug-12 07:33N 22°13' E 113°40'2120.7
2016-Aug-12 06:33N 22°29' E 113°55'0 0.1
2016-Aug-12 05:22N 22°29' E 113°54'0 0.1
2016-Aug-12 04:32N 22°29' E 113°55'1817.9
2016-Aug-12 03:33N 22°17' E 114°09'1414.3
2016-Aug-12 02:33N 22°23' E 113°55'10 7.7
2016-Aug-12 01:18N 22°21' E 114°05'2 2.0
2016-Aug-12 00:33N 22°19' E 114°05'27 1.9
2016-Aug-11 10:31N 22°11' E 113°38'  

Dump ship's entire track history